Terminal Aerodrome Forecast
Issued by NWS Lubbock, TX

Home | Current Version | Previous Version | Text Only | Print | Product List | Glossary On
Versions: 1 2 3 4 5 6 7 8 9 10 11 12 13 14 15 16 17 18
000
FTUS44 KLUB 271219 AAA
TAFLBB
TAF AMD
KLBB 271219Z 2712/2812 15006KT 4SM BR SCT004 OVC015
     FM271500 17011KT P6SM OVC020
     FM271700 18013KT P6SM SCT040
     FM280200 15013KT P6SM SCT060 BKN150 PROB30 2802/2806 5SM -TSRA
      BKN040CB=

USA.gov is the U.S. government's official web portal to all federal, state and local government web resources and services.